sensor_id;sensor_type;location;lat;lon;timestamp;pressure;altitude;pressure_sealevel;temperature;humidity
69245;BME280;56357;52.304;4.870;2024-02-28T00:02:03;102212.28;;;17.92;50.54
69245;BME280;56357;52.304;4.870;2024-02-28T00:04:29;102219.25;;;17.90;50.11
69245;BME280;56357;52.304;4.870;2024-02-28T00:06:56;102213.75;;;17.83;50.39
69245;BME280;56357;52.304;4.870;2024-02-28T00:09:23;102209.75;;;17.79;50.53
69245;BME280;56357;52.304;4.870;2024-02-28T00:11:49;102208.91;;;17.79;50.71
69245;BME280;56357;52.304;4.870;2024-02-28T00:14:16;102211.22;;;17.82;50.50
69245;BME280;56357;52.304;4.870;2024-02-28T00:16:43;102202.31;;;17.85;50.40
69245;BME280;56357;52.304;4.870;2024-02-28T00:19:10;102205.00;;;17.80;50.23
69245;BME280;56357;52.304;4.870;2024-02-28T00:21:40;102209.66;;;17.74;50.43
69245;BME280;56357;52.304;4.870;2024-02-28T00:24:07;102201.25;;;17.63;50.28
69245;BME280;56357;52.304;4.870;2024-02-28T00:26:34;102195.03;;;17.72;50.38
69245;BME280;56357;52.304;4.870;2024-02-28T00:29:00;102203.91;;;17.81;50.20
69245;BME280;56357;52.304;4.870;2024-02-28T00:31:27;102193.47;;;17.65;50.90
69245;BME280;56357;52.304;4.870;2024-02-28T00:33:53;102188.91;;;17.75;49.94
69245;BME280;56357;52.304;4.870;2024-02-28T00:36:20;102177.97;;;17.62;50.67
69245;BME280;56357;52.304;4.870;2024-02-28T00:38:46;102187.97;;;17.58;50.52
69245;BME280;56357;52.304;4.870;2024-02-28T00:41:12;102183.59;;;17.62;50.65
69245;BME280;56357;52.304;4.870;2024-02-28T00:43:39;102181.75;;;17.68;50.36
69245;BME280;56357;52.304;4.870;2024-02-28T00:46:05;102189.56;;;17.54;50.44
69245;BME280;56357;52.304;4.870;2024-02-28T00:48:36;102183.94;;;17.54;50.16
69245;BME280;56357;52.304;4.870;2024-02-28T00:51:03;102189.44;;;17.61;50.52
69245;BME280;56357;52.304;4.870;2024-02-28T00:53:30;102191.03;;;17.57;50.45
69245;BME280;56357;52.304;4.870;2024-02-28T00:55:56;102194.09;;;17.55;50.34
69245;BME280;56357;52.304;4.870;2024-02-28T00:58:23;102189.44;;;17.49;50.15
69245;BME280;56357;52.304;4.870;2024-02-28T01:00:51;102204.94;;;17.52;50.47
69245;BME280;56357;52.304;4.870;2024-02-28T01:03:17;102197.84;;;17.49;50.50
69245;BME280;56357;52.304;4.870;2024-02-28T01:05:44;102203.66;;;17.48;50.69
69245;BME280;56357;52.304;4.870;2024-02-28T01:08:10;102199.50;;;17.38;50.84
69245;BME280;56357;52.304;4.870;2024-02-28T01:10:37;102201.59;;;17.43;51.26
69245;BME280;56357;52.304;4.870;2024-02-28T01:13:03;102212.72;;;17.50;50.87
69245;BME280;56357;52.304;4.870;2024-02-28T01:15:30;102204.06;;;17.51;50.45
69245;BME280;56357;52.304;4.870;2024-02-28T01:17:56;102208.31;;;17.42;50.25
69245;BME280;56357;52.304;4.870;2024-02-28T01:20:22;102200.00;;;17.47;50.49
69245;BME280;56357;52.304;4.870;2024-02-28T01:22:49;102192.84;;;17.28;51.00
69245;BME280;56357;52.304;4.870;2024-02-28T01:25:15;102184.78;;;17.43;50.42
69245;BME280;56357;52.304;4.870;2024-02-28T01:27:41;102189.53;;;17.31;50.54
69245;BME280;56357;52.304;4.870;2024-02-28T01:30:08;102194.16;;;17.25;50.77
69245;BME280;56357;52.304;4.870;2024-02-28T01:32:34;102190.63;;;17.30;50.82
69245;BME280;56357;52.304;4.870;2024-02-28T01:35:02;102193.78;;;17.22;50.55
69245;BME280;56357;52.304;4.870;2024-02-28T01:37:29;102189.31;;;17.32;50.58
69245;BME280;56357;52.304;4.870;2024-02-28T01:39:55;102196.84;;;17.32;50.71
69245;BME280;56357;52.304;4.870;2024-02-28T01:42:22;102183.81;;;17.26;50.66
69245;BME280;56357;52.304;4.870;2024-02-28T01:44:48;102187.72;;;17.25;50.62
69245;BME280;56357;52.304;4.870;2024-02-28T01:47:15;102187.94;;;17.23;50.95
69245;BME280;56357;52.304;4.870;2024-02-28T01:49:42;102182.13;;;17.25;50.77
69245;BME280;56357;52.304;4.870;2024-02-28T01:52:10;102187.22;;;17.28;51.14
69245;BME280;56357;52.304;4.870;2024-02-28T01:54:38;102186.38;;;17.27;50.46
69245;BME280;56357;52.304;4.870;2024-02-28T01:57:05;102186.00;;;17.24;50.64
69245;BME280;56357;52.304;4.870;2024-02-28T01:59:34;102188.91;;;17.17;50.52
69245;BME280;56357;52.304;4.870;2024-02-28T02:02:00;102184.78;;;17.20;50.68
69245;BME280;56357;52.304;4.870;2024-02-28T02:04:27;102184.78;;;17.31;50.39
69245;BME280;56357;52.304;4.870;2024-02-28T02:06:53;102187.47;;;17.15;50.55
69245;BME280;56357;52.304;4.870;2024-02-28T02:09:23;102192.13;;;17.32;50.55
69245;BME280;56357;52.304;4.870;2024-02-28T02:11:50;102191.09;;;17.27;50.38
69245;BME280;56357;52.304;4.870;2024-02-28T02:14:16;102188.69;;;17.19;50.28
69245;BME280;56357;52.304;4.870;2024-02-28T02:16:42;102187.72;;;17.25;50.29
69245;BME280;56357;52.304;4.870;2024-02-28T02:19:09;102186.13;;;17.17;50.45
69245;BME280;56357;52.304;4.870;2024-02-28T02:21:43;102180.91;;;17.21;50.40
69245;BME280;56357;52.304;4.870;2024-02-28T02:24:15;102175.16;;;17.27;50.45
69245;BME280;56357;52.304;4.870;2024-02-28T02:26:41;102176.28;;;17.15;50.65
69245;BME280;56357;52.304;4.870;2024-02-28T02:29:09;102181.50;;;17.00;50.77
69245;BME280;56357;52.304;4.870;2024-02-28T02:31:36;102180.03;;;16.97;50.96
69245;BME280;56357;52.304;4.870;2024-02-28T02:34:02;102182.19;;;16.84;51.31
69245;BME280;56357;52.304;4.870;2024-02-28T02:36:29;102187.53;;;16.85;51.42
69245;BME280;56357;52.304;4.870;2024-02-28T02:38:55;102186.13;;;16.94;50.76
69245;BME280;56357;52.304;4.870;2024-02-28T02:41:22;102182.94;;;17.02;50.77
69245;BME280;56357;52.304;4.870;2024-02-28T02:43:49;102189.03;;;16.99;51.18
69245;BME280;56357;52.304;4.870;2024-02-28T02:46:15;102177.22;;;16.97;50.94
69245;BME280;56357;52.304;4.870;2024-02-28T02:48:41;102180.03;;;17.09;50.89
69245;BME280;56357;52.304;4.870;2024-02-28T02:51:08;102172.72;;;17.08;50.46
69245;BME280;56357;52.304;4.870;2024-02-28T02:53:34;102177.59;;;17.01;50.98
69245;BME280;56357;52.304;4.870;2024-02-28T02:56:03;102168.47;;;16.94;50.92
69245;BME280;56357;52.304;4.870;2024-02-28T02:58:30;102169.44;;;16.99;50.61
69245;BME280;56357;52.304;4.870;2024-02-28T03:00:56;102162.63;;;16.95;51.35
69245;BME280;56357;52.304;4.870;2024-02-28T03:03:22;102166.66;;;16.99;50.80
69245;BME280;56357;52.304;4.870;2024-02-28T03:05:49;102170.03;;;16.90;51.38
69245;BME280;56357;52.304;4.870;2024-02-28T03:08:15;102161.50;;;16.96;51.53
69245;BME280;56357;52.304;4.870;2024-02-28T03:10:41;102165.06;;;17.03;50.93
69245;BME280;56357;52.304;4.870;2024-02-28T03:13:07;102170.44;;;17.16;51.33
69245;BME280;56357;52.304;4.870;2024-02-28T03:15:33;102163.25;;;17.09;51.01
69245;BME280;56357;52.304;4.870;2024-02-28T03:18:00;102158.38;;;17.04;51.96
69245;BME280;56357;52.304;4.870;2024-02-28T03:20:27;102163.50;;;17.07;50.60
69245;BME280;56357;52.304;4.870;2024-02-28T03:22:53;102161.91;;;17.00;51.30
69245;BME280;56357;52.304;4.870;2024-02-28T03:25:19;102166.41;;;17.24;50.35
69245;BME280;56357;52.304;4.870;2024-02-28T03:27:46;102156.06;;;17.13;50.92
69245;BME280;56357;52.304;4.870;2024-02-28T03:30:12;102156.06;;;17.13;51.11
69245;BME280;56357;52.304;4.870;2024-02-28T03:32:38;102154.34;;;17.12;50.85
69245;BME280;56357;52.304;4.870;2024-02-28T03:35:05;102154.50;;;17.17;51.11
69245;BME280;56357;52.304;4.870;2024-02-28T03:37:33;102160.91;;;17.29;50.54
69245;BME280;56357;52.304;4.870;2024-02-28T03:40:00;102159.34;;;17.21;51.09
69245;BME280;56357;52.304;4.870;2024-02-28T03:42:26;102148.53;;;17.25;50.91
69245;BME280;56357;52.304;4.870;2024-02-28T03:44:53;102146.69;;;17.42;50.84
69245;BME280;56357;52.304;4.870;2024-02-28T03:47:19;102150.47;;;17.48;50.50
69245;BME280;56357;52.304;4.870;2024-02-28T03:49:46;102155.72;;;17.32;50.64
69245;BME280;56357;52.304;4.870;2024-02-28T03:52:12;102158.50;;;17.32;50.79
69245;BME280;56357;52.304;4.870;2024-02-28T03:54:42;102158.25;;;17.34;50.88
69245;BME280;56357;52.304;4.870;2024-02-28T03:57:09;102168.25;;;17.42;50.65
69245;BME280;56357;52.304;4.870;2024-02-28T03:59:35;102164.72;;;17.58;50.14
69245;BME280;56357;52.304;4.870;2024-02-28T04:02:02;102172.03;;;17.59;50.62
69245;BME280;56357;52.304;4.870;2024-02-28T04:04:28;102174.81;;;17.59;50.45
69245;BME280;56357;52.304;4.870;2024-02-28T04:06:54;102168.25;;;17.30;51.17
69245;BME280;56357;52.304;4.870;2024-02-28T04:09:21;102168.34;;;17.35;50.98
69245;BME280;56357;52.304;4.870;2024-02-28T04:11:48;102168.34;;;17.47;50.72
69245;BME280;56357;52.304;4.870;2024-02-28T04:14:14;102171.50;;;17.38;50.87
69245;BME280;56357;52.304;4.870;2024-02-28T04:16:42;102172.72;;;17.42;51.13
69245;BME280;56357;52.304;4.870;2024-02-28T04:19:10;102171.91;;;17.42;50.98
69245;BME280;56357;52.304;4.870;2024-02-28T04:21:37;102166.28;;;17.42;50.71
69245;BME280;56357;52.304;4.870;2024-02-28T04:24:05;102172.00;;;17.35;51.03
69245;BME280;56357;52.304;4.870;2024-02-28T04:26:32;102169.59;;;17.51;50.71
69245;BME280;56357;52.304;4.870;2024-02-28T04:28:58;102171.53;;;17.50;50.97
69245;BME280;56357;52.304;4.870;2024-02-28T04:31:26;102180.31;;;17.54;50.79
69245;BME280;56357;52.304;4.870;2024-02-28T04:33:53;102179.94;;;17.50;50.42
69245;BME280;56357;52.304;4.870;2024-02-28T04:36:19;102184.31;;;17.69;50.29
69245;BME280;56357;52.304;4.870;2024-02-28T04:38:45;102175.34;;;17.56;50.79
69245;BME280;56357;52.304;4.870;2024-02-28T04:41:12;102187.75;;;17.48;51.11
69245;BME280;56357;52.304;4.870;2024-02-28T04:43:39;102187.50;;;17.61;50.71
69245;BME280;56357;52.304;4.870;2024-02-28T04:46:06;102186.66;;;17.49;51.43
69245;BME280;56357;52.304;4.870;2024-02-28T04:48:32;102187.75;;;17.48;50.87
69245;BME280;56357;52.304;4.870;2024-02-28T04:51:00;102184.56;;;17.56;50.55
69245;BME280;56357;52.304;4.870;2024-02-28T04:53:26;102193.56;;;17.58;50.26
69245;BME280;56357;52.304;4.870;2024-02-28T04:55:53;102192.34;;;17.54;51.24
69245;BME280;56357;52.304;4.870;2024-02-28T04:58:19;102194.41;;;17.70;50.46
69245;BME280;56357;52.304;4.870;2024-02-28T05:00:46;102187.22;;;17.74;50.32
69245;BME280;56357;52.304;4.870;2024-02-28T05:03:12;102188.94;;;17.64;50.07
69245;BME280;56357;52.304;4.870;2024-02-28T05:05:38;102190.78;;;17.58;50.92
69245;BME280;56357;52.304;4.870;2024-02-28T05:08:05;102200.41;;;17.62;50.84
69245;BME280;56357;52.304;4.870;2024-02-28T05:10:31;102196.72;;;17.62;50.45
69245;BME280;56357;52.304;4.870;2024-02-28T05:12:59;102193.22;;;17.66;50.80
69245;BME280;56357;52.304;4.870;2024-02-28T05:15:25;102196.94;;;17.83;50.27
69245;BME280;56357;52.304;4.870;2024-02-28T05:17:52;102195.91;;;17.61;50.49
69245;BME280;56357;52.304;4.870;2024-02-28T05:20:18;102199.66;;;17.67;50.44
69245;BME280;56357;52.304;4.870;2024-02-28T05:22:45;102197.84;;;17.72;50.96
69245;BME280;56357;52.304;4.870;2024-02-28T05:25:11;102194.78;;;17.74;50.87
69245;BME280;56357;52.304;4.870;2024-02-28T05:27:37;102195.16;;;17.66;50.83
69245;BME280;56357;52.304;4.870;2024-02-28T05:30:04;102194.53;;;17.64;51.03
69245;BME280;56357;52.304;4.870;2024-02-28T05:32:32;102192.69;;;17.81;50.95
69245;BME280;56357;52.304;4.870;2024-02-28T05:34:59;102192.00;;;17.62;50.69
69245;BME280;56357;52.304;4.870;2024-02-28T05:37:25;102191.63;;;17.59;51.42
69245;BME280;56357;52.304;4.870;2024-02-28T05:39:52;102199.31;;;17.63;50.90
69245;BME280;56357;52.304;4.870;2024-02-28T05:42:19;102196.13;;;17.71;50.97
69245;BME280;56357;52.304;4.870;2024-02-28T05:44:50;102192.13;;;17.67;50.92
69245;BME280;56357;52.304;4.870;2024-02-28T05:47:16;102199.53;;;17.73;50.93
69245;BME280;56357;52.304;4.870;2024-02-28T05:49:43;102199.91;;;17.65;50.84
69245;BME280;56357;52.304;4.870;2024-02-28T05:52:09;102187.34;;;17.79;50.62
69245;BME280;56357;52.304;4.870;2024-02-28T05:54:36;102189.94;;;17.69;50.89
69245;BME280;56357;52.304;4.870;2024-02-28T05:57:02;102199.06;;;17.65;50.93
69245;BME280;56357;52.304;4.870;2024-02-28T05:59:29;102195.41;;;17.64;51.64
69245;BME280;56357;52.304;4.870;2024-02-28T06:01:55;102196.47;;;17.86;50.67
69245;BME280;56357;52.304;4.870;2024-02-28T06:04:21;102188.03;;;17.98;50.09
69245;BME280;56357;52.304;4.870;2024-02-28T06:06:48;102193.53;;;17.93;50.66
69245;BME280;56357;52.304;4.870;2024-02-28T06:09:15;102181.66;;;18.02;50.64
69245;BME280;56357;52.304;4.870;2024-02-28T06:11:42;102188.16;;;17.91;51.08
69245;BME280;56357;52.304;4.870;2024-02-28T06:14:08;102190.09;;;17.91;51.50
69245;BME280;56357;52.304;4.870;2024-02-28T06:16:35;102200.81;;;18.05;50.74
69245;BME280;56357;52.304;4.870;2024-02-28T06:19:01;102203.28;;;18.02;51.37
69245;BME280;56357;52.304;4.870;2024-02-28T06:21:27;102199.28;;;17.86;51.38
69245;BME280;56357;52.304;4.870;2024-02-28T06:23:54;102198.41;;;17.97;51.76
69245;BME280;56357;52.304;4.870;2024-02-28T06:26:21;102204.69;;;18.04;51.58
69245;BME280;56357;52.304;4.870;2024-02-28T06:28:47;102215.59;;;17.89;52.20
69245;BME280;56357;52.304;4.870;2024-02-28T06:31:16;102226.03;;;18.05;51.50
69245;BME280;56357;52.304;4.870;2024-02-28T06:33:43;102216.16;;;18.03;51.37
69245;BME280;56357;52.304;4.870;2024-02-28T06:36:09;102214.84;;;18.34;51.08
69245;BME280;56357;52.304;4.870;2024-02-28T06:38:36;102218.88;;;18.38;51.55
69245;BME280;56357;52.304;4.870;2024-02-28T06:41:06;102229.91;;;18.16;52.41
69245;BME280;56357;52.304;4.870;2024-02-28T06:43:35;102237.88;;;18.07;53.01
69245;BME280;56357;52.304;4.870;2024-02-28T06:46:02;102246.38;;;18.12;52.12
69245;BME280;56357;52.304;4.870;2024-02-28T06:48:29;102235.69;;;18.49;51.76
69245;BME280;56357;52.304;4.870;2024-02-28T06:50:56;102237.94;;;18.64;51.38
69245;BME280;56357;52.304;4.870;2024-02-28T06:53:23;102236.00;;;18.81;50.95
69245;BME280;56357;52.304;4.870;2024-02-28T06:55:49;102232.31;;;18.64;51.25
69245;BME280;56357;52.304;4.870;2024-02-28T06:58:15;102227.06;;;18.27;51.98
69245;BME280;56357;52.304;4.870;2024-02-28T07:00:42;102240.22;;;18.27;52.27
69245;BME280;56357;52.304;4.870;2024-02-28T07:03:08;102247.78;;;18.38;52.36
69245;BME280;56357;52.304;4.870;2024-02-28T07:05:35;102243.28;;;18.25;51.61
69245;BME280;56357;52.304;4.870;2024-02-28T07:08:01;102241.91;;;18.51;51.91
69245;BME280;56357;52.304;4.870;2024-02-28T07:10:28;102247.78;;;18.38;52.49
69245;BME280;56357;52.304;4.870;2024-02-28T07:12:55;102241.56;;;18.48;52.45
69245;BME280;56357;52.304;4.870;2024-02-28T07:15:21;102249.47;;;18.39;52.60
69245;BME280;56357;52.304;4.870;2024-02-28T07:17:47;102240.63;;;18.31;52.65
69245;BME280;56357;52.304;4.870;2024-02-28T07:20:14;102252.44;;;18.33;52.73
69245;BME280;56357;52.304;4.870;2024-02-28T07:22:42;102254.63;;;18.42;52.67
69245;BME280;56357;52.304;4.870;2024-02-28T07:25:09;102256.31;;;18.43;52.54
69245;BME280;56357;52.304;4.870;2024-02-28T07:27:35;102260.84;;;18.44;53.20
69245;BME280;56357;52.304;4.870;2024-02-28T07:30:02;102267.28;;;18.45;52.56
69245;BME280;56357;52.304;4.870;2024-02-28T07:32:29;102265.56;;;18.55;53.36
69245;BME280;56357;52.304;4.870;2024-02-28T07:34:59;102269.13;;;18.67;52.66
69245;BME280;56357;52.304;4.870;2024-02-28T07:37:26;102269.47;;;18.31;53.11
69245;BME280;56357;52.304;4.870;2024-02-28T07:39:52;102267.66;;;18.25;52.58
69245;BME280;56357;52.304;4.870;2024-02-28T07:42:18;102275.16;;;18.87;52.06
69245;BME280;56357;52.304;4.870;2024-02-28T07:44:45;102273.75;;;18.73;51.94
69245;BME280;56357;52.304;4.870;2024-02-28T07:47:11;102277.09;;;18.87;51.92
69245;BME280;56357;52.304;4.870;2024-02-28T07:49:39;102281.13;;;18.63;52.98
69245;BME280;56357;52.304;4.870;2024-02-28T07:52:05;102272.72;;;18.63;52.60
69245;BME280;56357;52.304;4.870;2024-02-28T07:54:32;102281.56;;;18.71;52.33
69245;BME280;56357;52.304;4.870;2024-02-28T07:56:58;102287.88;;;18.50;52.77
69245;BME280;56357;52.304;4.870;2024-02-28T07:59:25;102283.38;;;18.49;53.29
69245;BME280;56357;52.304;4.870;2024-02-28T08:01:51;102297.06;;;18.46;53.24
69245;BME280;56357;52.304;4.870;2024-02-28T08:04:18;102297.63;;;18.59;53.18
69245;BME280;56357;52.304;4.870;2024-02-28T08:06:44;102298.88;;;18.52;53.11
69245;BME280;56357;52.304;4.870;2024-02-28T08:09:10;102315.22;;;18.43;53.44
69245;BME280;56357;52.304;4.870;2024-02-28T08:11:37;102306.31;;;18.46;53.09
69245;BME280;56357;52.304;4.870;2024-02-28T08:14:03;102303.31;;;18.64;53.81
69245;BME280;56357;52.304;4.870;2024-02-28T08:16:30;102305.06;;;18.65;53.04
69245;BME280;56357;52.304;4.870;2024-02-28T08:18:56;102308.75;;;18.43;53.92
69245;BME280;56357;52.304;4.870;2024-02-28T08:21:23;102311.22;;;18.67;53.58
69245;BME280;56357;52.304;4.870;2024-02-28T08:23:50;102315.53;;;18.58;53.00
69245;BME280;56357;52.304;4.870;2024-02-28T08:26:16;102322.31;;;18.46;53.43
69245;BME280;56357;52.304;4.870;2024-02-28T08:28:42;102320.91;;;18.60;53.19
69245;BME280;56357;52.304;4.870;2024-02-28T08:31:09;102320.22;;;18.81;52.68
69245;BME280;56357;52.304;4.870;2024-02-28T08:33:35;102324.91;;;19.03;52.28
69245;BME280;56357;52.304;4.870;2024-02-28T08:36:02;102332.94;;;19.00;52.79
69245;BME280;56357;52.304;4.870;2024-02-28T08:38:28;102321.53;;;18.50;53.52
69245;BME280;56357;52.304;4.870;2024-02-28T08:40:55;102326.63;;;18.65;53.07
69245;BME280;56357;52.304;4.870;2024-02-28T08:43:21;102335.06;;;18.65;53.44
69245;BME280;56357;52.304;4.870;2024-02-28T08:45:47;102337.28;;;18.51;53.63
69245;BME280;56357;52.304;4.870;2024-02-28T08:48:15;102335.63;;;18.78;52.89
69245;BME280;56357;52.304;4.870;2024-02-28T08:50:41;102329.88;;;18.73;52.29
69245;BME280;56357;52.304;4.870;2024-02-28T08:53:08;102334.31;;;18.58;54.08
69245;BME280;56357;52.304;4.870;2024-02-28T08:55:34;102329.97;;;18.50;54.10
69245;BME280;56357;52.304;4.870;2024-02-28T08:58:00;102322.00;;;18.59;54.08
69245;BME280;56357;52.304;4.870;2024-02-28T09:00:27;102320.56;;;18.56;54.24
69245;BME280;56357;52.304;4.870;2024-02-28T09:02:53;102313.00;;;18.57;54.35
69245;BME280;56357;52.304;4.870;2024-02-28T09:05:19;102312.50;;;18.48;54.06
69245;BME280;56357;52.304;4.870;2024-02-28T09:07:46;102308.59;;;18.61;53.59
69245;BME280;56357;52.304;4.870;2024-02-28T09:10:16;102303.97;;;18.55;53.64
69245;BME280;56357;52.304;4.870;2024-02-28T09:12:46;102312.28;;;18.50;54.27
69245;BME280;56357;52.304;4.870;2024-02-28T09:15:12;102317.78;;;18.45;54.35
69245;BME280;56357;52.304;4.870;2024-02-28T09:17:39;102318.59;;;18.57;53.84
69245;BME280;56357;52.304;4.870;2024-02-28T09:20:06;102323.34;;;18.56;54.01
69245;BME280;56357;52.304;4.870;2024-02-28T09:22:33;102316.41;;;18.59;53.92
69245;BME280;56357;52.304;4.870;2024-02-28T09:25:00;102326.63;;;18.65;53.92
69245;BME280;56357;52.304;4.870;2024-02-28T09:27:29;102315.44;;;18.53;54.15
69245;BME280;56357;52.304;4.870;2024-02-28T09:29:55;102320.91;;;18.60;53.98
69245;BME280;56357;52.304;4.870;2024-02-28T09:32:21;102318.25;;;18.53;54.40
69245;BME280;56357;52.304;4.870;2024-02-28T09:34:48;102324.94;;;18.52;54.51
69245;BME280;56357;52.304;4.870;2024-02-28T09:37:14;102334.47;;;18.51;54.27
69245;BME280;56357;52.304;4.870;2024-02-28T09:39:42;102331.06;;;18.49;54.56
69245;BME280;56357;52.304;4.870;2024-02-28T09:42:09;102332.91;;;18.44;54.54
69245;BME280;56357;52.304;4.870;2024-02-28T09:44:40;102343.94;;;18.62;54.28
69245;BME280;56357;52.304;4.870;2024-02-28T09:47:07;102342.66;;;18.53;54.70
69245;BME280;56357;52.304;4.870;2024-02-28T09:49:34;102339.09;;;18.57;54.29
69245;BME280;56357;52.304;4.870;2024-02-28T09:52:03;102335.47;;;18.34;54.49
69245;BME280;56357;52.304;4.870;2024-02-28T09:54:29;102338.03;;;18.23;54.82
69245;BME280;56357;52.304;4.870;2024-02-28T09:56:55;102327.91;;;18.34;55.17
69245;BME280;56357;52.304;4.870;2024-02-28T09:59:23;102323.88;;;18.42;54.74
69245;BME280;56357;52.304;4.870;2024-02-28T10:01:57;102328.59;;;18.41;54.58
69245;BME280;56357;52.304;4.870;2024-02-28T10:04:25;102324.50;;;18.32;55.05
69245;BME280;56357;52.304;4.870;2024-02-28T10:06:52;102320.94;;;18.25;54.99
69245;BME280;56357;52.304;4.870;2024-02-28T10:09:19;102325.56;;;18.31;55.01
69245;BME280;56357;52.304;4.870;2024-02-28T10:11:45;102326.94;;;18.28;54.90
69245;BME280;56357;52.304;4.870;2024-02-28T10:14:17;102324.00;;;18.23;55.30
69245;BME280;56357;52.304;4.870;2024-02-28T10:16:44;102322.03;;;18.47;54.66
69245;BME280;56357;52.304;4.870;2024-02-28T10:19:10;102318.16;;;18.25;54.54
69245;BME280;56357;52.304;4.870;2024-02-28T10:21:36;102324.34;;;18.39;55.08
69245;BME280;56357;52.304;4.870;2024-02-28T10:24:04;102324.59;;;18.37;54.83
69245;BME280;56357;52.304;4.870;2024-02-28T10:26:31;102328.00;;;18.39;55.08
69245;BME280;56357;52.304;4.870;2024-02-28T10:29:03;102323.19;;;18.74;54.47
69245;BME280;56357;52.304;4.870;2024-02-28T10:31:32;102319.59;;;18.79;54.51
69245;BME280;56357;52.304;4.870;2024-02-28T10:34:00;102322.91;;;19.04;53.79
69245;BME280;56357;52.304;4.870;2024-02-28T10:36:30;102329.50;;;18.81;54.71
69245;BME280;56357;52.304;4.870;2024-02-28T10:38:58;102322.41;;;18.79;54.81
69245;BME280;56357;52.304;4.870;2024-02-28T10:41:28;102322.84;;;18.99;54.33
69245;BME280;56357;52.304;4.870;2024-02-28T10:43:54;102314.81;;;18.91;54.77
69245;BME280;56357;52.304;4.870;2024-02-28T10:46:21;102320.22;;;18.81;54.70
69245;BME280;56357;52.304;4.870;2024-02-28T10:48:49;102324.69;;;18.93;54.20
69245;BME280;56357;52.304;4.870;2024-02-28T10:51:23;102327.50;;;18.93;53.86
69245;BME280;56357;52.304;4.870;2024-02-28T10:56:25;102319.09;;;18.65;53.93
69245;BME280;56357;52.304;4.870;2024-02-28T10:58:57;102323.25;;;18.40;54.40
69245;BME280;56357;52.304;4.870;2024-02-28T11:01:25;102325.94;;;18.46;54.22
69245;BME280;56357;52.304;4.870;2024-02-28T11:03:52;102318.13;;;18.37;54.72
69245;BME280;56357;52.304;4.870;2024-02-28T11:06:21;102320.94;;;18.48;54.53
69245;BME280;56357;52.304;4.870;2024-02-28T11:08:48;102314.84;;;18.51;54.32
69245;BME280;56357;52.304;4.870;2024-02-28T11:11:18;102309.69;;;18.60;53.86
69245;BME280;56357;52.304;4.870;2024-02-28T11:13:52;102309.06;;;18.58;54.45
69245;BME280;56357;52.304;4.870;2024-02-28T11:16:29;102311.19;;;18.51;54.36
69245;BME280;56357;52.304;4.870;2024-02-28T11:18:56;102313.69;;;18.64;54.38
69245;BME280;56357;52.304;4.870;2024-02-28T11:21:24;102308.00;;;18.59;54.29
69245;BME280;56357;52.304;4.870;2024-02-28T11:23:52;102304.56;;;18.57;54.18
69245;BME280;56357;52.304;4.870;2024-02-28T11:26:23;102304.56;;;18.57;54.17
69245;BME280;56357;52.304;4.870;2024-02-28T11:28:49;102304.78;;;18.67;53.81
69245;BME280;56357;52.304;4.870;2024-02-28T11:31:16;102298.44;;;18.60;53.96
69245;BME280;56357;52.304;4.870;2024-02-28T11:33:43;102302.38;;;18.59;54.17
69245;BME280;56357;52.304;4.870;2024-02-28T11:36:13;102295.56;;;18.55;54.00
69245;BME280;56357;52.304;4.870;2024-02-28T11:38:40;102293.97;;;18.59;53.70
69245;BME280;56357;52.304;4.870;2024-02-28T11:41:07;102293.25;;;18.52;54.12
69245;BME280;56357;52.304;4.870;2024-02-28T11:43:34;102291.53;;;18.51;53.97
69245;BME280;56357;52.304;4.870;2024-02-28T11:46:00;102288.72;;;18.51;53.71
69245;BME280;56357;52.304;4.870;2024-02-28T11:48:28;102295.03;;;18.58;54.53
69245;BME280;56357;52.304;4.870;2024-02-28T11:50:54;102296.22;;;18.73;54.12
69245;BME280;56357;52.304;4.870;2024-02-28T11:53:20;102293.06;;;18.70;54.22
69245;BME280;56357;52.304;4.870;2024-02-28T11:55:50;102298.97;;;18.57;53.91
69245;BME280;56357;52.304;4.870;2024-02-28T11:58:17;102293.22;;;18.63;53.77
69245;BME280;56357;52.304;4.870;2024-02-28T12:00:50;102293.66;;;18.72;54.20
69245;BME280;56357;52.304;4.870;2024-02-28T12:03:21;102290.25;;;18.70;54.01
69245;BME280;56357;52.304;4.870;2024-02-28T12:05:48;102292.28;;;18.46;54.04
69245;BME280;56357;52.304;4.870;2024-02-28T12:08:17;102289.25;;;18.48;53.54
69245;BME280;56357;52.304;4.870;2024-02-28T12:10:44;102288.72;;;18.51;53.93
69245;BME280;56357;52.304;4.870;2024-02-28T12:13:10;102284.19;;;18.61;53.72
69245;BME280;56357;52.304;4.870;2024-02-28T12:15:39;102289.44;;;18.58;53.73
69245;BME280;56357;52.304;4.870;2024-02-28T12:18:08;102286.50;;;18.64;53.46
69245;BME280;56357;52.304;4.870;2024-02-28T12:20:34;102284.38;;;18.71;53.55
69245;BME280;56357;52.304;4.870;2024-02-28T12:23:02;102288.44;;;18.64;54.00
69245;BME280;56357;52.304;4.870;2024-02-28T12:25:29;102277.78;;;18.49;53.87
69245;BME280;56357;52.304;4.870;2024-02-28T12:27:55;102284.41;;;18.60;54.25
69245;BME280;56357;52.304;4.870;2024-02-28T12:30:21;102273.50;;;18.47;54.17
69245;BME280;56357;52.304;4.870;2024-02-28T12:32:48;102272.19;;;18.66;54.05
69245;BME280;56357;52.304;4.870;2024-02-28T12:35:14;102255.38;;;18.94;53.31
69245;BME280;56357;52.304;4.870;2024-02-28T12:37:41;102262.44;;;19.13;52.89
69245;BME280;56357;52.304;4.870;2024-02-28T12:40:07;102263.47;;;18.79;53.78
69245;BME280;56357;52.304;4.870;2024-02-28T12:42:34;102252.72;;;18.59;53.92
69245;BME280;56357;52.304;4.870;2024-02-28T12:45:01;102257.69;;;18.69;54.25
69245;BME280;56357;52.304;4.870;2024-02-28T12:47:28;102251.63;;;18.60;54.67
69245;BME280;56357;52.304;4.870;2024-02-28T12:49:56;102259.91;;;18.67;54.19
69245;BME280;56357;52.304;4.870;2024-02-28T12:52:23;102257.75;;;18.57;54.68